Time;durP1;ratioP1;P1;durP2;ratioP2;P2;SDS_P1;SDS_P2;PMS_P1;PMS_P2;Temp;Humidity;BMP_temperature;BMP_pressure;BME280_temperature;BME280_humidity;BME280_pressure;Samples;Min_cycle;Max_cycle;Signal;HPM_P1;HPM_P2
2022/06/07 00:01:28;;;;;;;13.73;7.03;;;;;;;18.35;96.03;94875.06;5076424;28;20449;-80
2022/06/07 00:03:54;;;;;;;6.10;5.57;;;;;;;18.25;96.73;94871.81;5076315;28;20939;-79
2022/06/07 00:06:23;;;;;;;6.13;5.53;;;;;;;18.16;97.42;94879.00;5076022;28;20972;-79
2022/06/07 00:08:50;;;;;;;6.97;6.30;;;;;;;18.16;96.75;94867.56;5076200;28;20889;-79
2022/06/07 00:11:17;;;;;;;11.03;6.97;;;;;;;18.22;97.33;94878.31;5075708;28;20487;-79
2022/06/07 00:13:45;;;;;;;8.40;5.37;;;;;;;18.26;96.26;94871.66;5076188;28;20445;-79
2022/06/07 00:16:12;;;;;;;6.00;5.40;;;;;;;18.30;96.07;94874.75;5025511;28;20898;-79
2022/06/07 00:18:39;;;;;;;7.50;6.73;;;;;;;18.31;96.16;94871.09;5075919;28;20954;-79
2022/06/07 00:21:06;;;;;;;6.67;6.07;;;;;;;18.33;95.65;94866.44;5076163;28;20477;-79
2022/06/07 00:23:35;;;;;;;7.30;5.80;;;;;;;18.30;95.52;94876.59;5075782;28;20443;-80
2022/06/07 00:26:03;;;;;;;9.70;5.30;;;;;;;18.31;95.33;94876.41;5024766;28;20463;-79
2022/06/07 00:28:30;;;;;;;8.57;6.07;;;;;;;18.32;95.32;94882.56;5076149;28;20441;-79
2022/06/07 00:30:58;;;;;;;14.20;6.33;;;;;;;18.32;95.58;94885.22;5075706;28;20507;-79
2022/06/07 00:33:26;;;;;;;6.47;5.93;;;;;;;18.34;95.51;94892.00;5075868;28;20467;-79
2022/06/07 00:35:53;;;;;;;8.93;5.30;;;;;;;18.38;95.09;94892.47;5075626;28;20451;-79
2022/06/07 00:38:20;;;;;;;13.30;5.70;;;;;;;18.37;95.05;94886.34;5075787;28;20456;-79
2022/06/07 00:40:48;;;;;;;12.53;6.20;;;;;;;18.37;94.30;94883.66;5075856;28;20447;-79
2022/06/07 00:43:15;;;;;;;7.10;6.23;;;;;;;18.33;94.41;94890.34;5075695;28;20453;-80
2022/06/07 00:45:42;;;;;;;5.90;5.00;;;;;;;18.25;93.94;94887.75;5075425;28;20532;-80
2022/06/07 00:48:10;;;;;;;5.77;5.13;;;;;;;18.20;93.97;94882.94;5075399;28;20437;-80
2022/06/07 00:50:46;;;;;;;9.10;4.90;;;;;;;18.11;93.61;94884.03;5075297;28;20484;-79
2022/06/07 00:53:25;;;;;;;12.17;5.67;;;;;;;18.10;93.31;94884.19;5075243;28;20448;-80
2022/06/07 00:55:55;;;;;;;7.53;5.50;;;;;;;18.04;93.66;94888.38;5075269;28;20452;-79
2022/06/07 00:58:25;;;;;;;4.90;4.50;;;;;;;18.02;93.62;94893.06;5074989;28;20820;-80
2022/06/07 01:00:52;;;;;;;6.90;5.60;;;;;;;17.99;93.78;94887.28;5075267;28;20497;-79
2022/06/07 01:03:20;;;;;;;7.67;4.70;;;;;;;17.92;93.88;94887.94;5039315;28;20826;-80
2022/06/07 01:05:47;;;;;;;5.80;5.30;;;;;;;17.91;94.14;94890.78;5075360;28;20467;-80
2022/06/07 01:11:00;;;;;;;8.90;5.47;;;;;;;17.91;94.36;94886.28;5074910;28;20480;-79
2022/06/07 01:13:32;;;;;;;7.93;5.67;;;;;;;17.89;93.92;94883.00;5075052;28;20464;-79
2022/06/07 01:16:00;;;;;;;6.17;5.67;;;;;;;17.83;94.12;94883.69;5074887;28;20432;-79
2022/06/07 01:18:27;;;;;;;9.40;6.57;;;;;;;17.81;93.91;94883.03;5074465;28;20961;-80
2022/06/07 01:21:14;;;;;;;5.80;4.83;;;;;;;17.81;94.06;94882.22;5039199;28;20487;-79
2022/06/07 01:23:42;;;;;;;10.73;5.47;;;;;;;17.79;94.65;94886.88;5074567;28;20506;-79
2022/06/07 01:26:09;;;;;;;6.20;5.60;;;;;;;17.81;94.51;94888.34;5074878;28;20959;-79
2022/06/07 01:28:36;;;;;;;8.77;6.13;;;;;;;17.80;94.59;94886.69;5074623;28;20814;-80
2022/06/07 01:31:03;;;;;;;6.20;5.60;;;;;;;17.84;94.22;94890.66;5074791;28;20491;-79
2022/06/07 01:33:30;;;;;;;5.77;5.27;;;;;;;17.87;94.02;94890.31;5074610;28;20887;-80
2022/06/07 01:36:01;;;;;;;6.70;5.40;;;;;;;17.87;94.06;94895.63;5074628;28;20795;-79
2022/06/07 01:38:31;;;;;;;6.40;5.67;;;;;;;17.89;94.22;94900.75;5074589;28;20444;-79
2022/06/07 01:43:42;;;;;;;7.40;5.60;;;;;;;17.84;93.83;94893.31;5074476;28;20428;-80
2022/06/07 01:46:09;;;;;;;5.20;4.80;;;;;;;17.79;94.24;94893.00;5074172;28;21049;-80
2022/06/07 01:48:36;;;;;;;6.80;5.10;;;;;;;17.71;94.86;94887.75;5038978;28;20449;-80
2022/06/07 01:51:04;;;;;;;6.17;4.67;;;;;;;17.61;95.17;94881.78;5074221;28;20484;-79
2022/06/07 01:53:33;;;;;;;5.43;4.97;;;;;;;17.61;95.07;94887.09;5074258;28;20810;-80
2022/06/07 01:56:04;;;;;;;5.50;5.00;;;;;;;17.56;95.35;94881.47;5074245;28;20499;-80
2022/06/07 01:58:31;;;;;;;6.70;5.10;;;;;;;17.55;95.31;94879.81;5073832;28;20447;-79
2022/06/07 02:00:58;;;;;;;5.47;5.07;;;;;;;17.47;95.39;94874.56;5038555;28;20460;-80
2022/06/07 02:03:25;;;;;;;8.23;5.57;;;;;;;17.51;95.12;94878.50;5073961;28;20808;-79
2022/06/07 02:05:56;;;;;;;6.53;4.87;;;;;;;17.51;95.19;94876.69;5073804;28;20463;-80
2022/06/07 02:08:23;;;;;;;5.17;4.70;;;;;;;17.53;95.64;94881.81;5074204;28;20494;-80
2022/06/07 02:10:51;;;;;;;6.33;4.80;;;;;;;17.54;95.11;94888.78;5073670;28;20837;-80
2022/06/07 02:13:19;;;;;;;6.37;4.80;;;;;;;17.54;94.40;94883.47;5073404;28;20445;-79
2022/06/07 02:15:46;;;;;;;4.80;4.40;;;;;;;17.54;94.73;94881.66;5073789;28;20537;-80
2022/06/07 02:18:14;;;;;;;5.10;4.60;;;;;;;17.47;94.65;94882.53;5022066;28;20441;-80
2022/06/07 02:20:42;;;;;;;8.80;4.60;;;;;;;17.46;94.90;94876.38;5074155;28;20472;-79
2022/06/07 02:23:10;;;;;;;5.20;4.80;;;;;;;17.42;94.77;94880.38;5073738;28;20524;-79
2022/06/07 02:25:42;;;;;;;4.90;4.50;;;;;;;17.47;94.83;94879.88;5073519;28;20838;-79
2022/06/07 02:28:12;;;;;;;4.40;4.10;;;;;;;17.52;94.68;94882.81;5073890;28;20433;-80
2022/06/07 02:30:40;;;;;;;4.40;4.10;;;;;;;17.54;94.97;94872.88;5073452;28;20488;-79
2022/06/07 02:33:08;;;;;;;6.13;4.60;;;;;;;17.55;94.62;94877.16;5073438;28;20437;-79
2022/06/07 02:35:35;;;;;;;4.83;4.40;;;;;;;17.55;94.64;94885.97;5073132;28;20814;-79
2022/06/07 02:38:02;;;;;;;4.87;4.47;;;;;;;17.60;94.56;94886.25;5073227;28;20448;-79
2022/06/07 02:40:29;;;;;;;17.00;4.63;;;;;;;17.60;94.20;94882.78;5073212;28;20448;-80
2022/06/07 02:42:57;;;;;;;4.73;4.43;;;;;;;17.62;94.14;94880.78;5073323;28;20445;-79
2022/06/07 02:45:25;;;;;;;5.07;4.50;;;;;;;17.63;93.76;94885.09;5073103;28;20441;-79
2022/06/07 02:47:52;;;;;;;6.00;4.47;;;;;;;17.63;93.39;94890.38;5073040;28;20441;-80
2022/06/07 02:50:19;;;;;;;5.57;4.20;;;;;;;17.56;93.14;94889.44;5073252;28;20491;-79
2022/06/07 02:52:46;;;;;;;4.63;4.23;;;;;;;17.50;92.99;94896.25;5073058;28;20453;-79
2022/06/07 02:55:14;;;;;;;5.73;5.13;;;;;;;17.52;93.53;94896.09;5021526;28;20445;-79
2022/06/07 02:57:41;;;;;;;5.70;4.73;;;;;;;17.53;93.35;94897.75;5073125;28;20780;-80
2022/06/07 03:00:10;;;;;;;5.90;5.17;;;;;;;17.54;93.93;94894.91;5072832;28;21135;-79
2022/06/07 03:02:39;;;;;;;5.10;4.60;;;;;;;17.61;94.77;94901.19;5072839;28;20452;-79
2022/06/07 03:05:07;;;;;;;5.87;5.37;;;;;;;17.65;94.60;94896.38;5073092;28;20472;-79
2022/06/07 03:07:34;;;;;;;5.83;4.80;;;;;;;17.74;94.71;94905.16;5073120;28;20441;-79
2022/06/07 03:10:01;;;;;;;8.50;5.70;;;;;;;17.79;94.93;94914.25;5072573;28;20570;-79
2022/06/07 03:12:28;;;;;;;5.83;5.07;;;;;;;17.85;94.79;94907.41;5072475;28;20448;-80
2022/06/07 03:14:55;;;;;;;7.47;5.13;;;;;;;17.88;95.44;94913.19;5072579;28;20790;-80
2022/06/07 03:17:22;;;;;;;5.67;5.07;;;;;;;17.91;95.07;94915.50;5072899;28;20449;-80
2022/06/07 03:19:50;;;;;;;11.83;5.40;;;;;;;17.94;95.21;94915.19;5072409;28;20468;-79
2022/06/07 03:22:19;;;;;;;5.63;5.13;;;;;;;17.97;95.15;94921.13;5072514;28;20441;-79
2022/06/07 03:24:45;;;;;;;6.03;5.43;;;;;;;18.00;95.17;94920.78;5072656;28;20452;-79
2022/06/07 03:27:13;;;;;;;7.10;5.30;;;;;;;18.07;95.22;94932.34;5037369;28;20444;-79
2022/06/07 03:29:40;;;;;;;5.07;4.57;;;;;;;18.13;95.48;94929.81;5073000;28;20453;-79
2022/06/07 03:32:08;;;;;;;12.60;5.63;;;;;;;18.18;94.99;94934.59;5072419;28;20488;-79
2022/06/07 03:34:37;;;;;;;5.73;4.57;;;;;;;18.17;93.80;94932.94;5037080;28;21034;-79
2022/06/07 03:37:06;;;;;;;5.73;4.87;;;;;;;18.12;92.49;94930.00;5072862;28;20456;-79
2022/06/07 03:39:33;;;;;;;4.97;4.57;;;;;;;18.17;92.29;94935.59;5072389;28;20817;-79
2022/06/07 03:42:00;;;;;;;5.47;4.97;;;;;;;18.16;92.41;94934.78;5072443;28;20464;-79
2022/06/07 03:44:28;;;;;;;7.60;4.87;;;;;;;18.15;93.02;94940.25;5072104;28;20481;-79
2022/06/07 03:46:55;;;;;;;5.27;4.77;;;;;;;18.19;92.98;94944.22;5072359;28;20451;-79
2022/06/07 03:49:21;;;;;;;5.17;4.77;;;;;;;18.17;93.02;94938.25;5072564;28;20782;-79
2022/06/07 03:51:49;;;;;;;9.10;5.00;;;;;;;18.21;92.65;94939.56;5072720;28;20488;-79
2022/06/07 03:54:17;;;;;;;7.43;4.53;;;;;;;18.23;92.66;94942.91;5072280;28;20798;-79
2022/06/07 03:56:44;;;;;;;6.93;4.50;;;;;;;18.25;92.89;94936.41;5072107;28;21028;-80
2022/06/07 03:59:11;;;;;;;5.53;4.70;;;;;;;18.22;92.94;94933.28;5020997;28;20449;-79
2022/06/07 04:01:38;;;;;;;4.80;4.17;;;;;;;18.23;93.25;94930.44;5020489;28;20444;-79
2022/06/07 04:04:08;;;;;;;8.70;4.57;;;;;;;18.18;93.91;94924.81;5072246;28;20429;-79
2022/06/07 04:06:40;;;;;;;4.40;4.10;;;;;;;18.18;93.43;94923.97;5071917;28;20437;-79
2022/06/07 04:09:07;;;;;;;5.33;4.93;;;;;;;18.11;94.01;94933.66;5072228;28;20452;-79
2022/06/07 04:11:36;;;;;;;6.40;5.80;;;;;;;18.11;93.99;94931.00;5072124;28;20476;-79
2022/06/07 04:14:03;;;;;;;5.20;4.73;;;;;;;18.16;94.00;94934.78;5072017;28;20444;-79
2022/06/07 04:16:31;;;;;;;13.20;5.03;;;;;;;18.16;93.99;94932.13;5071999;28;20441;-79
2022/06/07 04:18:58;;;;;;;6.00;5.50;;;;;;;18.22;93.94;94930.63;5036669;28;20451;-79
2022/06/07 04:21:25;;;;;;;5.30;4.90;;;;;;;18.28;94.12;94940.53;5072323;28;20476;-80
2022/06/07 04:23:54;;;;;;;5.97;5.40;;;;;;;18.34;94.40;94941.66;5072265;28;20455;-80
2022/06/07 04:26:23;;;;;;;7.63;5.73;;;;;;;18.54;94.86;94941.00;5072211;28;20439;-79
2022/06/07 04:28:52;;;;;;;9.57;6.00;;;;;;;18.75;94.00;94944.84;5071767;28;20451;-79
2022/06/07 04:31:21;;;;;;;9.97;6.00;;;;;;;18.86;92.86;94939.13;5071950;28;20488;-80
2022/06/07 04:33:49;;;;;;;8.60;6.90;;;;;;;18.85;92.81;94946.28;5072346;28;20868;-79
2022/06/07 04:36:18;;;;;;;6.90;6.17;;;;;;;18.88;92.32;94942.44;5036322;28;20456;-79
2022/06/07 04:38:46;;;;;;;9.83;6.30;;;;;;;18.88;92.69;94932.63;5075481;28;20510;-80
2022/06/07 04:41:15;;;;;;;8.97;6.97;;;;;;;18.94;93.16;94933.72;5075404;28;20436;-79
2022/06/07 04:43:42;;;;;;;15.37;9.17;;;;;;;18.99;93.26;94936.66;5075431;28;20447;-80
2022/06/07 04:46:14;;;;;;;8.77;7.97;;;;;;;19.07;93.59;94925.94;5024258;28;20443;-79
2022/06/07 04:48:42;;;;;;;7.30;6.60;;;;;;;19.26;94.44;94934.41;5075482;28;20451;-79
2022/06/07 04:51:13;;;;;;;9.23;7.77;;;;;;;18.60;98.60;94933.34;5075115;28;20487;-79
2022/06/07 04:53:40;;;;;;;20.33;9.37;;;;;;;18.76;98.70;94941.19;5075454;28;20460;-79
2022/06/07 04:56:11;;;;;;;10.33;8.10;;;;;;;19.06;98.06;94942.91;5075246;28;20445;-79
2022/06/07 04:58:38;;;;;;;16.27;8.33;;;;;;;19.53;97.19;94944.47;5075376;28;20826;-79
2022/06/07 05:01:11;;;;;;;12.23;9.00;;;;;;;20.31;95.27;94945.66;5056542;28;20437;-80
2022/06/07 05:03:38;;;;;;;9.50;8.60;;;;;;;20.66;90.74;94946.66;5075408;28;20437;-79
2022/06/07 05:06:15;;;;;;;14.47;8.40;;;;;;;20.76;89.54;94947.16;5074980;28;20445;-79
2022/06/07 05:08:42;;;;;;;9.20;8.07;;;;;;;20.75;89.27;94953.50;5074988;28;20992;-80
2022/06/07 05:11:09;;;;;;;10.10;9.10;;;;;;;20.68;88.04;94964.13;5075470;28;20481;-79
2022/06/07 05:13:36;;;;;;;10.03;8.27;;;;;;;20.52;89.10;94958.19;5075070;28;20429;-79
2022/06/07 05:16:04;;;;;;;14.43;8.93;;;;;;;20.61;89.65;94955.25;5075393;28;20476;-80
2022/06/07 05:18:32;;;;;;;9.10;8.17;;;;;;;20.51;90.12;94953.88;5075095;28;20524;-80
2022/06/07 05:20:59;;;;;;;8.27;7.47;;;;;;;20.53;90.29;94960.69;5074811;28;20530;-80
2022/06/07 05:23:26;;;;;;;12.27;9.13;;;;;;;20.36;90.91;94957.41;5074858;28;20456;-79
2022/06/07 05:25:55;;;;;;;9.80;8.80;;;;;;;20.52;91.59;94953.69;5075015;28;20444;-80
2022/06/07 05:28:22;;;;;;;9.63;8.20;;;;;;;20.71;90.31;94963.75;5074652;28;21156;-79
2022/06/07 05:30:49;;;;;;;9.77;8.77;;;;;;;20.76;89.97;94957.00;5074824;28;20498;-80
2022/06/07 05:33:16;;;;;;;14.50;8.20;;;;;;;20.95;89.19;94954.53;5074781;28;20451;-79
2022/06/07 05:35:44;;;;;;;10.40;8.20;;;;;;;20.84;87.59;94960.38;5074701;28;20452;-79
2022/06/07 05:38:12;;;;;;;11.73;8.93;;;;;;;20.49;89.77;94969.25;5074451;28;20441;-79
2022/06/07 05:40:39;;;;;;;13.40;9.90;;;;;;;20.50;89.60;94960.22;5074770;28;20441;-79
2022/06/07 05:43:06;;;;;;;9.40;8.53;;;;;;;20.66;90.14;94962.66;5023044;28;20448;-79
2022/06/07 05:45:33;;;;;;;12.83;8.37;;;;;;;20.99;90.16;94961.13;5074557;28;20445;-80
2022/06/07 05:48:00;;;;;;;8.70;7.80;;;;;;;21.07;88.08;94967.34;5073885;28;20444;-80
2022/06/07 05:50:27;;;;;;;9.50;8.60;;;;;;;21.18;87.65;94961.50;5073991;28;20444;-79
2022/06/07 05:52:55;;;;;;;10.47;9.10;;;;;;;21.55;87.48;94960.34;5074146;28;20488;-80
2022/06/07 05:55:22;;;;;;;10.10;9.10;;;;;;;22.10;85.60;94962.13;5074075;28;20442;-79
2022/06/07 05:57:51;;;;;;;11.13;8.30;;;;;;;22.36;82.89;94969.41;5074554;28;20467;-80
2022/06/07 06:00:20;;;;;;;12.13;8.30;;;;;;;22.69;82.27;94974.03;5074927;28;20799;-79
2022/06/07 06:02:47;;;;;;;11.80;8.17;;;;;;;22.85;80.95;94974.50;5073916;28;20491;-80
2022/06/07 06:05:14;;;;;;;9.13;8.10;;;;;;;23.26;79.68;94968.16;5074047;28;20437;-80
2022/06/07 06:10:23;;;;;;;12.70;7.60;;;;;;;23.66;76.97;94968.13;5073156;28;20441;-80
2022/06/07 06:12:51;;;;;;;16.00;8.40;;;;;;;23.49;74.99;94971.22;5073854;28;20511;-80
2022/06/07 06:15:18;;;;;;;15.87;8.53;;;;;;;23.51;75.77;94972.88;5073993;28;20815;-80
2022/06/07 06:17:45;;;;;;;12.17;8.97;;;;;;;23.37;77.34;94972.03;5074198;28;20459;-80
2022/06/07 06:20:13;;;;;;;11.17;9.43;;;;;;;22.93;77.84;94959.28;5074015;28;20474;-80
2022/06/07 06:22:40;;;;;;;13.70;9.80;;;;;;;22.79;77.64;94961.91;5073871;28;20453;-81
2022/06/07 06:25:09;;;;;;;15.23;10.13;;;;;;;22.69;78.61;94966.81;5073479;28;20852;-79
2022/06/07 06:27:37;;;;;;;16.03;10.63;;;;;;;22.40;79.92;94957.28;5073726;28;20446;-80
2022/06/07 06:30:04;;;;;;;10.60;9.50;;;;;;;22.63;80.24;94961.47;5073859;28;20436;-80
2022/06/07 06:32:31;;;;;;;11.57;10.37;;;;;;;22.99;78.83;94955.78;5038285;28;20484;-80
2022/06/07 06:34:58;;;;;;;12.53;9.23;;;;;;;23.22;78.22;94958.88;5073724;28;20441;-80
2022/06/07 06:37:27;;;;;;;12.30;10.07;;;;;;;23.40;76.01;94953.72;5073546;28;20476;-79
2022/06/07 06:39:54;;;;;;;12.10;10.17;;;;;;;23.40;75.20;94952.88;5073211;28;20484;-79
2022/06/07 06:42:20;;;;;;;12.17;10.80;;;;;;;23.43;77.26;94937.25;5038420;28;20454;-79
2022/06/07 06:44:49;;;;;;;11.50;10.37;;;;;;;23.78;76.40;94945.88;5073317;28;20448;-79
2022/06/07 06:47:17;;;;;;;12.10;10.00;;;;;;;24.24;73.98;94957.44;5073570;28;20450;-80
2022/06/07 06:49:45;;;;;;;11.93;10.17;;;;;;;24.33;72.97;94951.69;5073143;28;20444;-79
2022/06/07 06:52:12;;;;;;;10.63;9.43;;;;;;;24.08;73.10;94948.03;5073276;28;20487;-79
2022/06/07 06:54:39;;;;;;;16.50;10.13;;;;;;;24.34;73.64;94942.59;5077203;28;20536;-80
2022/06/07 06:57:07;;;;;;;11.27;9.77;;;;;;;24.47;73.24;94939.00;5072938;28;20463;-80
2022/06/07 06:59:34;;;;;;;13.70;10.13;;;;;;;24.75;72.83;94941.34;5037323;28;20860;-80
2022/06/07 07:02:02;;;;;;;15.03;10.70;;;;;;;24.92;70.96;94938.97;5073156;28;20445;-80
2022/06/07 07:04:29;;;;;;;10.60;9.50;;;;;;;25.22;70.74;94937.31;5073138;28;20475;-79
2022/06/07 07:06:56;;;;;;;10.27;9.27;;;;;;;25.12;68.47;94934.28;5072861;28;20445;-79
2022/06/07 07:09:24;;;;;;;10.27;8.67;;;;;;;25.39;69.54;94931.38;5072824;28;20444;-79
2022/06/07 07:11:53;;;;;;;12.23;9.40;;;;;;;25.66;67.71;94938.13;5072576;28;20485;-80
2022/06/07 07:14:21;;;;;;;11.30;10.20;;;;;;;25.77;67.06;94929.38;5072883;28;20448;-80
2022/06/07 07:16:52;;;;;;;14.30;9.40;;;;;;;26.11;66.34;94930.66;5072723;28;20448;-79
2022/06/07 07:19:21;;;;;;;12.73;9.57;;;;;;;26.34;65.21;94929.19;5072732;28;20843;-80
2022/06/07 07:21:50;;;;;;;9.97;8.97;;;;;;;26.51;65.31;94931.00;5072760;28;20448;-80
2022/06/07 07:24:19;;;;;;;12.47;9.43;;;;;;;26.82;64.52;94929.94;5072585;28;20446;-79
2022/06/07 07:26:47;;;;;;;11.90;8.40;;;;;;;27.05;64.55;94944.56;5072632;28;20444;-80
2022/06/07 07:29:17;;;;;;;10.30;7.80;;;;;;;26.83;62.93;94938.84;5072488;28;20940;-79
2022/06/07 07:31:44;;;;;;;9.43;8.53;;;;;;;26.67;62.96;94926.03;5072629;28;20489;-79
2022/06/07 07:34:14;;;;;;;10.17;8.20;;;;;;;26.82;65.02;94934.50;5020626;28;20453;-80
2022/06/07 07:36:45;;;;;;;9.87;9.00;;;;;;;26.75;63.86;94923.00;5072570;28;20475;-80
2022/06/07 07:39:12;;;;;;;13.37;9.53;;;;;;;26.73;63.79;94922.41;5072262;28;20446;-79
2022/06/07 07:41:41;;;;;;;18.80;8.87;;;;;;;26.88;62.88;94922.81;5072499;28;20446;-80
2022/06/07 07:44:12;;;;;;;9.03;8.23;;;;;;;26.46;62.24;94916.59;5072172;28;20433;-79
2022/06/07 07:46:41;;;;;;;9.83;8.27;;;;;;;26.66;62.79;94913.63;5072313;28;20511;-80
2022/06/07 07:49:08;;;;;;;9.50;8.70;;;;;;;26.80;63.13;94905.09;5072145;28;20447;-79
2022/06/07 07:51:38;;;;;;;9.97;9.07;;;;;;;26.55;62.90;94909.81;5072041;28;20445;-79
2022/06/07 07:54:10;;;;;;;15.37;7.73;;;;;;;26.47;65.17;94900.22;5072545;28;20454;-79
2022/06/07 07:56:37;;;;;;;8.67;7.87;;;;;;;26.27;65.75;94894.22;5072323;28;20434;-80
2022/06/07 07:59:05;;;;;;;9.17;8.37;;;;;;;26.47;62.94;94894.81;5072159;28;20452;-80
2022/06/07 08:01:32;;;;;;;9.77;7.70;;;;;;;26.69;63.21;94891.63;5072387;28;20433;-79
2022/06/07 08:04:01;;;;;;;9.17;8.00;;;;;;;26.96;64.17;94882.09;5072119;28;20781;-80
2022/06/07 08:06:30;;;;;;;13.00;8.07;;;;;;;27.08;61.69;94888.34;5071945;28;20449;-79
2022/06/07 08:09:00;;;;;;;9.00;8.10;;;;;;;27.04;62.44;94879.09;5072253;28;20449;-80
2022/06/07 08:11:32;;;;;;;11.73;8.10;;;;;;;26.96;63.11;94875.88;5072139;28;20446;-79
2022/06/07 08:13:59;;;;;;;9.13;8.27;;;;;;;26.92;59.91;94870.16;5076503;28;20488;-80
2022/06/07 08:16:27;;;;;;;7.10;6.57;;;;;;;27.05;59.72;94867.25;5076025;28;20448;-80
2022/06/07 08:18:54;;;;;;;9.00;8.10;;;;;;;26.54;58.98;94863.25;5075891;28;20449;-80
2022/06/07 08:21:25;;;;;;;13.20;7.60;;;;;;;26.33;60.67;94857.53;5076337;28;20453;-80
2022/06/07 08:23:52;;;;;;;7.93;7.30;;;;;;;26.65;60.76;94861.66;5075861;28;20978;-80
2022/06/07 08:26:20;;;;;;;8.20;7.40;;;;;;;26.88;59.40;94858.16;5076065;28;20932;-80
2022/06/07 08:28:49;;;;;;;9.30;7.73;;;;;;;27.07;59.19;94858.94;5075999;28;20432;-80
2022/06/07 08:31:18;;;;;;;11.13;6.90;;;;;;;27.27;60.81;94864.00;5075613;28;20453;-81
2022/06/07 08:39:14;;;;;;;10.67;7.43;;;;;;;27.38;57.80;94852.38;5075998;28;20519;-80
2022/06/07 08:41:47;;;;;;;10.23;8.07;;;;;;;27.54;58.43;94845.47;5075626;28;20465;-80
2022/06/07 08:44:20;;;;;;;8.27;6.77;;;;;;;27.66;58.18;94855.19;5075567;28;20456;-80
2022/06/07 08:46:47;;;;;;;10.33;7.00;;;;;;;27.28;57.08;94849.47;5075498;28;20955;-80
2022/06/07 08:49:14;;;;;;;7.50;6.73;;;;;;;27.11;58.45;94836.69;5075238;28;20446;-80
2022/06/07 08:51:59;;;;;;;7.80;6.43;;;;;;;27.25;57.28;94845.38;5075295;28;20855;-79
2022/06/07 08:54:31;;;;;;;6.50;5.80;;;;;;;27.32;56.55;94834.47;5075405;28;20452;-79
2022/06/07 08:57:05;;;;;;;5.47;4.93;;;;;;;27.15;53.80;94837.84;5075365;28;20449;-79
2022/06/07 08:59:33;;;;;;;9.43;6.27;;;;;;;26.82;51.48;94821.41;5075786;28;20441;-80
2022/06/07 09:02:08;;;;;;;3.47;2.93;;;;;;;26.60;46.58;94813.06;5039803;28;20442;-79
2022/06/07 09:04:39;;;;;;;4.20;3.90;;;;;;;26.85;51.41;94805.59;5075223;28;20444;-80
2022/06/07 09:07:15;;;;;;;4.53;4.23;;;;;;;27.02;48.43;94811.16;5075033;28;20957;-80
2022/06/07 09:12:33;;;;;;;4.37;4.03;;;;;;;26.99;48.43;94803.53;5075019;28;20488;-80
2022/06/07 09:15:09;;;;;;;4.40;4.10;;;;;;;27.20;48.10;94804.03;5075386;28;20804;-80
2022/06/07 09:17:39;;;;;;;4.53;4.23;;;;;;;27.27;49.72;94802.03;5075128;28;20579;-80
2022/06/07 09:20:14;;;;;;;4.90;4.50;;;;;;;27.00;48.45;94793.59;5074688;28;20466;-80
2022/06/07 09:22:49;;;;;;;6.50;4.27;;;;;;;27.06;49.05;94798.84;5074773;28;20481;-80
2022/06/07 09:25:21;;;;;;;6.53;4.60;;;;;;;26.56;48.40;94798.41;5074548;28;20448;-80
2022/06/07 09:27:48;;;;;;;4.97;4.57;;;;;;;26.55;49.28;94792.22;5075091;28;20441;-79
2022/06/07 09:30:25;;;;;;;5.70;5.20;;;;;;;26.41;50.80;94795.34;5074848;28;20443;-80
2022/06/07 09:32:53;;;;;;;6.97;4.90;;;;;;;26.39;51.18;94787.50;5074721;28;21229;-80
2022/06/07 09:35:25;;;;;;;5.23;4.83;;;;;;;26.50;52.66;94785.88;5074590;28;20804;-80
2022/06/07 09:37:56;;;;;;;5.77;5.27;;;;;;;26.71;50.38;94779.97;5071986;28;20446;-80
2022/06/07 09:40:30;;;;;;;5.70;5.30;;;;;;;26.66;51.73;94779.03;5074862;28;20450;-79
2022/06/07 09:43:08;;;;;;;5.40;5.00;;;;;;;26.40;48.96;94775.69;5074724;28;20454;-80
2022/06/07 09:45:52;;;;;;;5.20;4.80;;;;;;;26.35;50.83;94778.25;5074291;28;20510;-80
2022/06/07 09:48:25;;;;;;;5.73;5.20;;;;;;;25.91;50.74;94776.78;5074339;28;20446;-80
2022/06/07 09:50:57;;;;;;;6.57;5.97;;;;;;;25.93;51.67;94775.50;5074427;28;20515;-80
2022/06/07 09:53:34;;;;;;;5.80;5.30;;;;;;;25.95;54.36;94772.59;5074496;28;20482;-80
2022/06/07 09:56:19;;;;;;;5.37;4.93;;;;;;;26.15;54.79;94766.94;5074608;28;20441;-80
2022/06/07 09:58:57;;;;;;;7.70;4.63;;;;;;;25.89;50.38;94763.56;4992631;28;20507;-80
2022/06/07 10:01:36;;;;;;;5.43;5.03;;;;;;;25.98;53.17;94757.88;4992777;28;20449;-79
2022/06/07 10:04:12;;;;;;;5.83;5.33;;;;;;;26.04;52.62;94756.97;4992550;28;20457;-79
2022/06/07 10:06:45;;;;;;;5.70;5.20;;;;;;;26.23;52.64;94753.97;4992562;28;20452;-79
2022/06/07 10:09:25;;;;;;;5.50;5.10;;;;;;;26.22;54.12;94746.94;4992289;28;20453;-80
2022/06/07 10:12:03;;;;;;;5.90;5.37;;;;;;;26.37;53.27;94743.06;4992427;28;20504;-80
2022/06/07 10:14:45;;;;;;;5.10;4.70;;;;;;;26.27;51.71;94746.25;4992602;28;20473;-80
2022/06/07 10:17:39;;;;;;;5.13;4.73;;;;;;;26.07;52.32;94743.88;4992112;28;20459;-79
2022/06/07 10:20:14;;;;;;;9.70;5.20;;;;;;;25.44;52.06;94744.25;4992259;28;20471;-81
2022/06/07 10:23:00;;;;;;;5.53;5.03;;;;;;;25.38;52.61;94741.66;4992365;28;20448;-80
2022/06/07 10:25:33;;;;;;;6.07;5.47;;;;;;;25.40;51.96;94736.88;4992189;28;20448;-81
2022/06/07 10:28:08;;;;;;;8.47;5.90;;;;;;;25.66;52.66;94741.94;4992432;28;20456;-80
2022/06/07 10:30:41;;;;;;;4.87;4.47;;;;;;;25.94;52.66;94725.22;4991985;28;20488;-80
2022/06/07 10:33:43;;;;;;;5.37;4.93;;;;;;;26.29;53.83;94725.31;4991855;28;20495;-80
2022/06/07 10:36:26;;;;;;;6.27;5.77;;;;;;;26.29;53.57;94728.00;4983033;28;20467;-80
2022/06/07 10:39:04;;;;;;;6.17;5.67;;;;;;;26.24;51.29;94723.31;5011274;28;20959;-80
2022/06/07 10:41:37;;;;;;;5.37;4.97;;;;;;;25.83;51.79;94724.16;5011265;28;20447;-80
2022/06/07 10:44:14;;;;;;;5.63;5.13;;;;;;;25.65;54.22;94721.47;5011635;28;20555;-81
2022/06/07 10:46:44;;;;;;;5.37;4.80;;;;;;;25.62;55.62;94708.50;4996518;28;20456;-80
2022/06/07 10:49:19;;;;;;;5.67;5.17;;;;;;;25.68;52.59;94710.28;5011491;28;20448;-80
2022/06/07 10:54:47;;;;;;;5.73;5.33;;;;;;;26.07;49.54;94708.09;5011241;28;20479;-80
2022/06/07 10:57:25;;;;;;;6.07;5.50;;;;;;;26.19;49.85;94698.19;5011163;28;20566;-80
2022/06/07 10:59:53;;;;;;;8.40;5.90;;;;;;;25.79;47.66;94701.47;5011063;28;20882;-80
2022/06/07 11:02:27;;;;;;;10.10;5.70;;;;;;;25.89;48.17;94690.16;5011009;28;20832;-80
2022/06/07 11:10:40;;;;;;;5.83;5.30;;;;;;;26.25;51.26;94686.47;5011155;28;20510;-80
2022/06/07 11:13:19;;;;;;;4.63;4.33;;;;;;;26.29;52.29;94686.84;5042816;28;20482;-81
2022/06/07 11:15:54;;;;;;;5.13;4.73;;;;;;;26.35;52.58;94676.00;5072938;28;20437;-80
2022/06/07 11:18:24;;;;;;;5.20;4.80;;;;;;;26.53;50.33;94678.56;5073036;28;20460;-81
2022/06/07 11:21:12;;;;;;;5.60;5.03;;;;;;;26.57;51.09;94680.81;5072562;28;21607;-80
2022/06/07 11:23:47;;;;;;;7.13;5.10;;;;;;;26.49;50.09;94681.97;5072493;28;20438;-81
2022/06/07 11:26:15;;;;;;;5.30;4.60;;;;;;;26.23;48.46;94684.03;5072334;28;20434;-80
2022/06/07 11:28:48;;;;;;;5.93;4.37;;;;;;;26.11;47.14;94685.88;5037157;28;20430;-80
2022/06/07 11:31:36;;;;;;;5.17;4.67;;;;;;;26.34;50.85;94679.75;5072621;28;20453;-80
2022/06/07 11:34:12;;;;;;;5.53;5.00;;;;;;;26.53;49.76;94675.88;5072566;28;20986;-80
2022/06/07 11:36:41;;;;;;;9.90;4.90;;;;;;;26.48;47.19;94669.56;5073003;28;20460;-82
2022/06/07 11:39:29;;;;;;;4.20;4.00;;;;;;;26.43;49.15;94667.59;5072504;28;20509;-80
2022/06/07 11:41:58;;;;;;;4.80;4.40;;;;;;;26.06;48.54;94663.44;5072227;28;20534;-80
2022/06/07 11:44:37;;;;;;;4.20;3.80;;;;;;;25.80;50.23;94672.72;5072546;28;20451;-80
2022/06/07 11:47:24;;;;;;;4.37;4.10;;;;;;;25.84;49.76;94665.84;5072342;28;20481;-80
2022/06/07 11:50:01;;;;;;;5.73;4.17;;;;;;;26.02;51.06;94660.38;5072450;28;20460;-80
2022/06/07 11:52:30;;;;;;;4.97;4.67;;;;;;;26.12;50.76;94654.44;5072411;28;20954;-80
2022/06/07 11:55:09;;;;;;;5.10;4.70;;;;;;;26.14;50.10;94649.63;5072572;28;20484;-80
2022/06/07 11:57:38;;;;;;;7.60;4.80;;;;;;;26.10;51.85;94651.97;5072582;28;20441;-80
2022/06/07 12:00:38;;;;;;;5.10;4.70;;;;;;;25.79;52.19;94655.78;5072456;28;20814;-80
2022/06/07 12:03:26;;;;;;;5.27;4.87;;;;;;;25.96;53.78;94652.41;5072746;28;20453;-80
2022/06/07 12:05:56;;;;;;;5.00;4.40;;;;;;;25.97;51.53;94635.22;5072645;28;20793;-81
2022/06/07 12:08:27;;;;;;;5.23;4.70;;;;;;;26.13;51.68;94639.94;5037143;28;20437;-81
2022/06/07 12:11:05;;;;;;;4.60;4.30;;;;;;;26.20;50.48;94635.25;5072236;28;20445;-80